Aérodrome :
LOGIN :

S'inscrire | Disclaimer

   EN    FR    IT 

 










Légende :    VFR   VFR Marginal   IFR   IFR Intensif   IFR Très Intensif
Visi : 
Plafond : 
>= 8 km
>= 3000ft
5 à 8 km
1000 à 3000 ft
1500m à 5 km
500 à 1000 ft
800 à 1500m
200 à 500 ft
< 800m
< 200 ft
Symboles :   Orages  Brouillard  Fortes neiges  Fortes précipitations  Vent > 20 kt
SIGMETs :   Divers  Orages  Givrage  Turbulence  Onde Orograph.  Cendres Volcan.






- Altitude de l'aérodrome : 137 ft


LIPS - Istrana AFB Treviso

DERNIER METAR :
  • 211455Z /////KT 9000 SCT025 20/19 Q1022 RMK SCT VIS MIN 9000 WIND THR26 02006KT WIND THR08 05007KT BLU

METARs EXPIRÉS :
  • 211355Z /////KT 9000 SCT030 SCT080 20/19 Q1022 RMK BKN VIS MIN 9000 WIND THR26 03009KT WIND THR08 07009KT BLU
  • 211255Z /////KT 9000 SCT015 BKN030 20/19 Q1023 RMK OVC VIS MIN 9000 WIND THR26 01009KT WIND THR08 06009KT BLU

TAF TAF LIPS
Valide du 21 à 15h jusqu'au 22 à 00h UTC


211400Z 2115/2124 03005KT 8000 SCT020 BKN030
TEMPO 2115/2117 03010KT 9999 SCT030 SCT080
BECMG 2117/2119 5000 BR BKN010



MET'MAP, la Météo Aéronautique d'un coup d'oeil ! - Copyright ORBIFLY Décembre 2007 - Disclaimer

ORBIFLY MET'MAP TEAM :

Programmation & Développement : Alexandra Zaïnal
Conception & Développement : Baudouin d'Aumeries
Co-Programmation & Développement : Marc-Olivier Méhu
Soutien technique & logistique : Manuel Goepfert

Contact : metmap@orbifly.com




SOURCES & CREDITS :

   NOAA